Terminal Aerodrome Forecast
Issued by NWS

Home | Current Version | Previous Version | Text Only | Print | Product List | Glossary On
Versions: 1 2 3 4 5 6 7 8 9 10 11 12 13 14 15 16 17 18 19 20 21
218
FTUS45 KABQ 251915 AAA
TAFLVS
TAF AMD
KLVS 251915Z 2519/2618 19015G25KT P6SM VCSH SCT080 BKN150
     FM260200 VRB20G32KT 6SM -TSRA SCT035 BKN060CB
     FM260500 11007KT P6SM SCT015 BKN035
     FM260800 10006KT P6SM SCT004 BKN009
     FM261600 16008KT P6SM SCT009 BKN019=

USA.gov is the U.S. government's official web portal to all federal, state and local government web resources and services.